createdAt,value
2023-03-23T15:59:53.944Z,96925.96
2023-03-23T16:02:26.929Z,96925.74
2023-03-23T16:04:58.427Z,96922.09
2023-03-23T16:07:29.559Z,96926.29
2023-03-23T16:10:00.781Z,96931.78
2023-03-23T16:12:33.178Z,96933.76
2023-03-23T16:15:04.528Z,96923.94
2023-03-23T16:17:35.991Z,96916.88
2023-03-23T16:20:14.652Z,96920.71
2023-03-23T16:22:45.964Z,96922.29
2023-03-23T16:25:18.796Z,96916.84
2023-03-23T16:27:52.324Z,96920.84
2023-03-23T16:30:27.225Z,96925.55
2023-03-23T16:32:58.352Z,96925.61
2023-03-23T16:35:29.541Z,96926.21
2023-03-23T16:38:08.101Z,96930.06
2023-03-23T16:40:40.388Z,96932.30
2023-03-23T16:43:12.044Z,96935.27
2023-03-23T16:45:45.971Z,96940.27
2023-03-23T16:48:18.330Z,96941.77
2023-03-23T16:50:50.012Z,96944.17
2023-03-23T16:53:21.734Z,96944.63
2023-03-23T16:55:54.203Z,96948.20
2023-03-23T16:58:29.128Z,96946.61
2023-03-23T17:01:00.143Z,96949.27
2023-03-23T17:03:31.778Z,96957.71
2023-03-23T17:06:04.649Z,96957.54
2023-03-23T17:08:35.995Z,96963.80
2023-03-23T17:11:07.457Z,96972.27
2023-03-23T17:13:39.067Z,96982.16
2023-03-23T17:16:11.696Z,96984.16
2023-03-23T17:18:42.703Z,96992.98
2023-03-23T17:21:14.072Z,96989.55
2023-03-23T17:23:45.296Z,96992.42
2023-03-23T17:26:16.504Z,96987.92
2023-03-23T17:28:47.665Z,96984.14
2023-03-23T17:31:18.791Z,96983.91
2023-03-23T17:33:52.174Z,96980.63
2023-03-23T17:36:23.189Z,96981.09
2023-03-23T17:38:54.821Z,96982.77
2023-03-23T17:41:27.219Z,96980.37
2023-03-23T17:43:58.538Z,96980.28
2023-03-23T17:46:29.842Z,96985.71
2023-03-23T17:49:01.339Z,96987.64
2023-03-23T17:51:32.775Z,96987.41
2023-03-23T17:54:03.885Z,96989.37
2023-03-23T17:56:35.128Z,96991.39
2023-03-23T17:59:07.245Z,96998.38
2023-03-23T18:01:38.437Z,97003.52
2023-03-23T18:04:09.773Z,97007.27
2023-03-23T18:06:41.005Z,97005.77
2023-03-23T18:09:12.851Z,97007.26
2023-03-23T18:11:44.088Z,97013.22
2023-03-23T18:14:15.665Z,97010.98
2023-03-23T18:16:47.358Z,97007.80
2023-03-23T18:19:18.773Z,97006.15
2023-03-23T18:21:50.155Z,97008.36
2023-03-23T18:24:21.798Z,97011.73
2023-03-23T18:26:53.572Z,97010.84
2023-03-23T18:29:24.970Z,97016.10
2023-03-23T18:31:56.225Z,97021.18
2023-03-23T18:34:27.593Z,97023.34
2023-03-23T18:36:58.724Z,97029.20
2023-03-23T18:39:31.753Z,97029.60
2023-03-23T18:42:02.871Z,97033.33
2023-03-23T18:44:34.111Z,97035.34
2023-03-23T18:47:05.508Z,97032.08
2023-03-23T18:49:36.773Z,97036.09
2023-03-23T18:52:08.599Z,97035.36
2023-03-23T18:54:41.764Z,97028.90
2023-03-23T18:57:13.144Z,97029.48
2023-03-23T18:59:44.459Z,97030.17
2023-03-23T19:02:18.361Z,97027.16
2023-03-23T19:04:50.515Z,97025.38
2023-03-23T19:07:21.973Z,97019.58
2023-03-23T19:09:53.200Z,97020.91
2023-03-23T19:12:24.230Z,97023.61
2023-03-23T19:14:55.393Z,97020.25
2023-03-23T19:17:27.086Z,97015.77
2023-03-23T19:19:58.291Z,97020.49
2023-03-23T19:22:29.972Z,97027.27
2023-03-23T19:25:01.486Z,97029.54
2023-03-23T19:27:33.054Z,97033.23
2023-03-23T19:30:04.674Z,97032.93
2023-03-23T19:32:37.132Z,97033.63
2023-03-23T19:35:10.168Z,97032.17
2023-03-23T19:37:41.343Z,97031.64
2023-03-23T19:40:31.744Z,97032.27
2023-03-23T19:43:05.929Z,97032.15
2023-03-23T19:45:37.224Z,97027.52
2023-03-23T19:48:10.108Z,97029.42
2023-03-23T19:50:42.910Z,97029.98
2023-03-23T19:53:14.520Z,97028.11
2023-03-23T19:55:46.205Z,97029.98
2023-03-23T19:58:18.045Z,97025.48
2023-03-23T20:00:50.637Z,97023.52
2023-03-23T20:03:22.032Z,97023.73
2023-03-23T20:05:53.088Z,97023.67
2023-03-23T20:08:25.164Z,97021.61
2023-03-23T20:11:05.311Z,97030.05
2023-03-23T20:13:37.407Z,97035.02
2023-03-23T20:16:10.579Z,97035.05
2023-03-23T20:18:41.825Z,97034.65
2023-03-23T20:21:15.330Z,97031.58
2023-03-23T20:23:47.720Z,97033.11
2023-03-23T20:26:21.194Z,97034.65
2023-03-23T20:28:53.135Z,97038.10
2023-03-23T20:31:26.811Z,97036.31
2023-03-23T20:34:02.002Z,97032.04
2023-03-23T20:36:36.064Z,97031.94
2023-03-23T20:39:10.716Z,97030.92
2023-03-23T20:41:43.338Z,97030.13
2023-03-23T20:44:16.175Z,97031.55
2023-03-23T20:46:48.933Z,97034.92
2023-03-23T20:49:22.110Z,97035.95
2023-03-23T20:51:53.837Z,97041.44
2023-03-23T20:54:25.551Z,97048.53
2023-03-23T20:56:58.565Z,97049.42
2023-03-23T20:59:30.105Z,97046.52
2023-03-23T21:02:01.466Z,97040.27
2023-03-23T21:04:32.683Z,97042.35
2023-03-23T21:07:03.938Z,97047.52
2023-03-23T21:09:35.864Z,97046.87
2023-03-23T21:12:09.299Z,97044.36
2023-03-23T21:14:42.432Z,97042.80
2023-03-23T21:17:13.560Z,97046.85
2023-03-23T21:19:45.617Z,97049.48
2023-03-23T21:22:19.201Z,97050.12
2023-03-23T21:24:51.441Z,97053.71
2023-03-23T21:27:22.544Z,97051.20
2023-03-23T21:29:57.278Z,97049.89
2023-03-23T21:32:29.181Z,97052.84
2023-03-23T21:35:02.831Z,97042.08
2023-03-23T21:37:34.018Z,97049.78
2023-03-23T21:40:07.078Z,97046.02
2023-03-23T21:42:42.215Z,97050.71
2023-03-23T21:45:20.996Z,97050.14
2023-03-23T21:47:57.005Z,97046.38
2023-03-23T21:50:30.077Z,97043.38
2023-03-23T21:53:01.542Z,97039.58
2023-03-23T21:55:33.656Z,97039.28
2023-03-23T21:58:05.734Z,97033.77
2023-03-23T22:00:36.866Z,97033.73
2023-03-23T22:03:09.255Z,97031.30
2023-03-23T22:05:43.960Z,97040.78
2023-03-23T22:08:15.279Z,97042.70
2023-03-23T22:10:47.091Z,97042.82
2023-03-23T22:13:35.273Z,97044.00
2023-03-23T22:16:09.223Z,97047.70
2023-03-23T22:18:43.109Z,97044.06
2023-03-23T22:21:15.892Z,97040.41
2023-03-23T22:23:48.098Z,97038.91
2023-03-23T22:26:19.398Z,97036.05
2023-03-23T22:28:51.179Z,97031.98
2023-03-23T22:31:24.602Z,97031.73
2023-03-23T22:33:57.335Z,97028.85
2023-03-23T22:36:29.807Z,97028.04
2023-03-23T22:39:01.222Z,97024.48
2023-03-23T22:41:35.679Z,97022.71
2023-03-23T22:44:09.055Z,97021.20
2023-03-23T22:46:40.287Z,97017.64
2023-03-23T22:49:11.820Z,97012.70
2023-03-23T22:51:43.082Z,97013.05
2023-03-23T22:54:14.433Z,97012.91
2023-03-23T22:56:45.623Z,97009.20
2023-03-23T22:59:17.091Z,97008.41
2023-03-23T23:01:49.044Z,97011.08
2023-03-23T23:04:20.269Z,97010.26
2023-03-23T23:06:57.609Z,97008.95
2023-03-23T23:09:37.790Z,97002.85
2023-03-23T23:12:09.684Z,97000.06
2023-03-23T23:14:43.391Z,97001.95
2023-03-23T23:17:14.523Z,97000.92
2023-03-23T23:19:45.575Z,96994.20
2023-03-23T23:22:19.313Z,96996.90
2023-03-23T23:24:50.950Z,96995.85
2023-03-23T23:27:22.064Z,96995.36
2023-03-23T23:29:53.264Z,96993.85
2023-03-23T23:32:24.706Z,96998.30
2023-03-23T23:34:56.144Z,96995.40
2023-03-23T23:37:28.178Z,96992.34
2023-03-23T23:39:59.746Z,96988.60
2023-03-23T23:42:31.114Z,96992.98
2023-03-23T23:45:03.365Z,96987.83
2023-03-23T23:47:35.165Z,96983.61
2023-03-23T23:50:08.656Z,96981.44
2023-03-23T23:52:42.678Z,96975.83
2023-03-23T23:55:16.860Z,96974.53
2023-03-23T23:57:49.343Z,96971.19
